Time;durP1;ratioP1;P1;durP2;ratioP2;P2;SDS_P1;SDS_P2;PMS_P1;PMS_P2;Temp;Humidity;BMP_temperature;BMP_pressure;BME280_temperature;BME280_humidity;BME280_pressure;Samples;Min_cycle;Max_cycle;Signal;HPM_P1;HPM_P2
2021/04/07 00:00:37;;;;;;;3.90;2.77;;;-0.60;88.90;;;-0.55;73.28;97173.63;4911961;29;20067;-47
2021/04/07 00:03:06;;;;;;;;;;;-0.50;88.70;;;-0.62;73.22;97177.56;4928867;29;20056;-48
2021/04/07 00:05:39;;;;;;;6.47;2.23;;;-0.50;88.80;;;-0.41;72.16;97180.50;4929561;29;19927;-47
2021/04/07 00:08:08;;;;;;;5.82;2.90;;;-0.50;88.50;;;-0.52;72.98;97177.81;4929774;29;20055;-48
2021/04/07 00:10:43;;;;;;;3.90;2.00;;;-0.50;88.80;;;-0.50;73.04;97183.78;4912330;29;20055;-46
2021/04/07 00:13:14;;;;;;;3.80;2.30;;;-0.50;88.70;;;-0.64;73.42;97182.06;4926540;29;20065;-48
2021/04/07 00:15:42;;;;;;;5.43;2.33;;;-0.60;89.30;;;-0.54;73.27;97184.91;4928615;29;20365;-50
2021/04/07 00:18:10;;;;;;;3.57;2.60;;;-0.50;89.80;;;-0.52;72.89;97181.25;4911303;29;20245;-47
2021/04/07 00:20:38;;;;;;;3.73;2.07;;;-0.50;89.50;;;-0.44;73.23;97184.19;4928383;29;20073;-48
2021/04/07 00:23:07;;;;;;;4.90;2.63;;;-0.50;89.20;;;-0.40;73.62;97184.81;4929560;29;20054;-48
2021/04/07 00:25:35;;;;;;;5.37;2.43;;;-0.40;89.80;;;-0.23;73.37;97183.69;4912448;29;20064;-49
2021/04/07 00:28:06;;;;;;;4.80;2.57;;;-0.30;89.70;;;-0.25;73.04;97193.41;4929809;29;20063;-48
2021/04/07 00:30:37;;;;;;;4.60;3.00;;;-0.40;89.30;;;-0.18;72.83;97178.94;4927826;29;20062;-46
2021/04/07 00:33:06;;;;;;;4.03;2.40;;;-0.30;89.70;;;-0.24;72.80;97185.44;4927485;29;20062;-45
2021/04/07 00:35:34;;;;;;;4.03;2.83;;;-0.40;89.80;;;-0.18;73.28;97183.34;4911988;29;20056;-50
2021/04/07 00:38:01;;;;;;;4.90;2.50;;;-0.40;89.80;;;-0.12;72.77;97186.38;4911836;29;20043;-51
2021/04/07 00:40:29;;;;;;;3.17;2.30;;;-0.40;89.70;;;-0.21;72.32;97194.88;4929701;29;20363;-47
2021/04/07 00:42:59;;;;;;;6.63;2.87;;;-0.40;89.50;;;-0.17;72.77;97183.25;4927457;29;20067;-50
2021/04/07 00:45:26;;;;;;;4.07;2.53;;;-0.40;89.50;;;-0.27;72.61;97190.03;4913021;29;20230;-46
2021/04/07 00:47:55;;;;;;;3.20;2.30;;;-0.40;90.00;;;-0.53;74.26;97194.44;4929546;29;20051;-49
2021/04/07 00:50:27;;;;;;;4.50;2.73;;;-0.60;90.70;;;-0.53;73.96;97190.03;4928181;29;20044;-46
2021/04/07 00:52:56;;;;;;;5.00;2.80;;;-0.70;90.80;;;-0.52;73.62;97193.50;4926668;29;20383;-50
2021/04/07 00:55:32;;;;;;;6.03;3.53;;;-0.70;90.30;;;-0.73;73.92;97199.22;4929146;29;20043;-49
2021/04/07 00:58:01;;;;;;;5.20;2.83;;;-0.70;89.80;;;-0.70;73.23;97198.16;4926581;29;20273;-47
2021/04/07 01:00:29;;;;;;;6.60;2.70;;;-0.70;89.20;;;-0.62;73.53;97199.34;4909247;29;20066;-48
2021/04/07 01:03:01;;;;;;;5.63;2.57;;;-0.70;89.20;;;-0.53;72.43;97200.50;4927575;29;20085;-50
2021/04/07 01:05:29;;;;;;;5.17;3.70;;;-0.60;88.80;;;-0.64;73.01;97200.38;4911251;29;20379;-49
2021/04/07 01:07:58;;;;;;;7.63;3.20;;;-0.70;89.20;;;-0.61;72.50;97201.00;4911811;29;20608;-50
2021/04/07 01:10:27;;;;;;;7.33;3.70;;;-0.80;89.00;;;-0.62;72.85;97204.56;4926668;29;20058;-48
2021/04/07 01:12:55;;;;;;;5.50;3.27;;;-0.80;88.80;;;-0.71;72.66;97202.56;4928127;29;20207;-50
2021/04/07 01:15:23;;;;;;;5.30;3.37;;;-0.80;88.70;;;-0.68;72.44;97207.59;4927107;29;20066;-49
2021/04/07 01:17:51;;;;;;;7.53;3.50;;;-0.80;88.40;;;-0.58;72.03;97202.59;4927750;29;20047;-47
2021/04/07 01:20:20;;;;;;;7.23;3.43;;;-0.70;88.00;;;-0.62;71.84;97208.94;4894629;29;20058;-46
2021/04/07 01:23:00;;;;;;;6.77;3.43;;;-0.80;88.00;;;-0.60;72.07;97215.78;4928686;29;20261;-46
2021/04/07 01:25:28;;;;;;;5.67;3.20;;;-0.70;87.80;;;-0.85;72.04;97206.09;4911643;29;20341;-46
2021/04/07 01:27:56;;;;;;;7.43;3.50;;;-0.90;88.50;;;-0.71;71.97;97220.88;4910992;29;20063;-49
2021/04/07 01:30:25;;;;;;;8.10;4.40;;;-0.90;88.00;;;-0.78;72.76;97216.16;4910533;29;20059;-49
2021/04/07 01:32:52;;;;;;;4.00;3.10;;;-0.90;88.20;;;-0.70;72.11;97222.56;4926430;29;20059;-49
2021/04/07 01:35:23;;;;;;;8.77;4.37;;;-0.80;87.50;;;-0.67;72.08;97216.28;4928240;29;20052;-49
2021/04/07 01:37:50;;;;;;;6.30;4.00;;;-0.70;87.40;;;-0.73;71.98;97224.53;4928107;29;20075;-46
2021/04/07 01:40:18;;;;;;;6.80;4.33;;;-0.70;87.20;;;-0.68;72.10;97215.44;4928181;29;20050;-46
2021/04/07 01:42:47;;;;;;;6.03;5.10;;;-0.70;87.30;;;-0.77;72.19;97226.50;4926928;29;20459;-49
2021/04/07 01:45:15;;;;;;;5.93;4.10;;;-0.80;87.30;;;-0.77;72.32;97229.13;4927595;29;20052;-47
2021/04/07 01:47:44;;;;;;;9.40;4.50;;;-0.90;87.70;;;-0.79;72.45;97233.63;4911355;29;20050;-49
2021/04/07 01:50:12;;;;;;;8.50;4.70;;;-0.90;87.70;;;-0.78;71.50;97237.06;4909528;29;20253;-51
2021/04/07 01:52:40;;;;;;;6.73;4.50;;;-0.90;87.70;;;-0.95;72.31;97231.16;4927678;29;20048;-47
2021/04/07 01:55:08;;;;;;;6.57;4.40;;;-1.00;87.20;;;-0.84;71.76;97227.84;4925948;29;20057;-46
2021/04/07 01:57:36;;;;;;;6.37;4.37;;;-0.90;87.30;;;-0.86;71.96;97233.16;4926579;29;20059;-47
2021/04/07 02:00:15;;;;;;;9.30;4.77;;;-0.90;86.90;;;-0.94;71.10;97237.22;4927745;29;20345;-49
2021/04/07 02:02:43;;;;;;;5.57;3.90;;;-1.00;86.80;;;-0.93;71.63;97229.28;4910707;29;20055;-46
2021/04/07 02:05:12;;;;;;;7.00;4.67;;;-1.00;86.70;;;-0.97;71.44;97242.63;4927359;29;20059;-47
2021/04/07 02:07:39;;;;;;;6.90;4.77;;;-1.00;86.70;;;-1.08;71.94;97241.56;4928669;29;20065;-49
2021/04/07 02:10:09;;;;;;;8.60;4.70;;;-1.10;86.60;;;-0.97;71.08;97246.09;4927371;29;20184;-48
2021/04/07 02:12:37;;;;;;;8.33;5.37;;;-1.00;86.40;;;-0.98;71.85;97239.19;4928120;29;20048;-51
2021/04/07 02:15:15;;;;;;;6.80;4.23;;;-0.90;86.20;;;-1.02;71.73;97250.78;4928380;29;20350;-51
2021/04/07 02:17:45;;;;;;;8.70;5.00;;;-1.00;86.50;;;-0.96;71.64;97249.56;4931517;29;20367;-48
2021/04/07 02:20:14;;;;;;;7.33;3.93;;;-1.00;86.60;;;-0.96;71.53;97244.34;4930441;29;20048;-47
2021/04/07 02:22:41;;;;;;;7.67;4.80;;;-0.90;86.30;;;-0.89;71.22;97249.06;4912513;29;20062;-49
2021/04/07 02:25:11;;;;;;;8.10;4.57;;;-0.90;86.50;;;-0.91;71.09;97258.78;4932078;29;20474;-47
2021/04/07 02:27:39;;;;;;;7.97;4.80;;;-0.90;86.20;;;-0.96;71.67;97263.44;4931220;29;20249;-47
2021/04/07 02:30:14;;;;;;;10.37;4.53;;;-0.90;86.50;;;-0.84;71.25;97265.25;4930957;29;20051;-46
2021/04/07 02:32:42;;;;;;;5.80;4.23;;;-0.90;86.60;;;-0.90;71.99;97262.22;4929872;29;20066;-45
2021/04/07 02:35:11;;;;;;;7.37;5.10;;;-0.90;87.30;;;-0.71;71.69;97273.16;4930002;29;20055;-45
2021/04/07 02:37:38;;;;;;;8.27;5.00;;;-0.80;87.40;;;-0.81;71.67;97274.69;4913874;29;20054;-48
2021/04/07 02:40:06;;;;;;;6.17;4.43;;;-0.70;85.80;;;-0.86;71.34;97280.22;4930582;29;20063;-48
2021/04/07 02:42:34;;;;;;;9.77;4.30;;;-0.90;85.90;;;-0.90;71.67;97273.50;4930275;29;20066;-45
2021/04/07 02:45:02;;;;;;;8.10;3.93;;;-0.80;85.70;;;-0.76;71.64;97280.44;4930895;29;20062;-49
2021/04/07 02:47:30;;;;;;;5.10;3.63;;;-0.80;85.50;;;-0.78;71.14;97281.50;4930260;29;20361;-47
2021/04/07 02:49:57;;;;;;;7.30;3.93;;;-0.70;85.10;;;-0.73;70.82;97282.88;4927797;29;20070;-47
2021/04/07 02:52:25;;;;;;;5.33;3.53;;;-0.70;84.60;;;-0.54;70.13;97284.28;4928407;29;20062;-48
2021/04/07 02:54:52;;;;;;;7.50;3.43;;;-0.60;84.40;;;-0.56;70.03;97292.25;4929999;29;20249;-48
2021/04/07 02:57:19;;;;;;;7.43;5.00;;;-0.60;83.90;;;-0.51;70.62;97291.94;4930535;29;20067;-48
2021/04/07 02:59:49;;;;;;;7.67;4.13;;;-0.60;84.40;;;-0.54;69.75;97295.59;4930505;29;20062;-48
2021/04/07 03:02:17;;;;;;;6.03;3.97;;;-0.60;84.60;;;-0.61;70.47;97292.53;4930312;29;20353;-46
2021/04/07 03:04:44;;;;;;;7.37;4.43;;;-0.70;83.90;;;-0.54;70.45;97294.72;4929805;29;20051;-49
2021/04/07 03:07:12;;;;;;;6.27;3.37;;;-0.70;85.70;;;-0.60;70.35;97303.84;4930000;29;20055;-50
2021/04/07 03:09:40;;;;;;;9.43;3.67;;;-0.60;83.60;;;-0.57;70.41;97305.41;4930472;29;20052;-48
2021/04/07 03:12:08;;;;;;;6.67;3.77;;;-0.60;83.80;;;-0.52;70.05;97305.97;4928842;29;20353;-49
2021/04/07 03:14:35;;;;;;;3.80;2.40;;;-0.60;84.00;;;-0.65;70.00;97311.97;4930281;29;20476;-48
2021/04/07 03:17:03;;;;;;;7.93;3.50;;;-0.70;83.60;;;-0.54;69.97;97318.25;4929297;29;20058;-46
2021/04/07 03:19:30;;;;;;;5.23;3.07;;;-0.60;83.70;;;-0.72;70.31;97326.38;4930934;29;20051;-49
2021/04/07 03:21:58;;;;;;;5.23;2.70;;;-0.70;83.30;;;-0.76;70.46;97319.66;4930671;29;20059;-47
2021/04/07 03:24:25;;;;;;;7.07;4.07;;;-0.60;83.10;;;-0.54;70.13;97319.13;4929845;29;20069;-47
2021/04/07 03:26:53;;;;;;;6.67;3.60;;;-0.60;83.70;;;-0.50;69.56;97319.78;4929022;29;20051;-47
2021/04/07 03:29:21;;;;;;;3.80;2.57;;;-0.60;83.30;;;-0.53;68.94;97333.84;4929343;29;20055;-49
2021/04/07 03:31:48;;;;;;;5.47;3.20;;;-0.60;82.80;;;-0.57;69.54;97334.16;4929740;29;20362;-48
2021/04/07 03:34:16;;;;;;;5.17;3.20;;;-0.60;82.90;;;-0.69;69.36;97327.97;4929835;29;20052;-47
2021/04/07 03:36:43;;;;;;;6.73;3.83;;;-0.70;83.10;;;-0.69;69.83;97334.03;4930042;29;20047;-48
2021/04/07 03:39:10;;;;;;;4.40;2.77;;;-0.60;83.10;;;-0.69;70.06;97339.25;4911660;29;20064;-46
2021/04/07 03:41:38;;;;;;;6.43;2.90;;;-0.60;83.20;;;-0.70;69.32;97348.03;4928758;29;20056;-49
2021/04/07 03:44:05;;;;;;;7.93;3.23;;;-0.60;82.40;;;-0.60;69.81;97341.28;4928925;29;20074;-46
2021/04/07 03:46:33;;;;;;;4.90;2.93;;;-0.60;83.20;;;-0.84;69.89;97330.59;4911616;29;20059;-48
2021/04/07 03:49:00;;;;;;;6.30;3.37;;;-0.80;82.80;;;-0.80;70.35;97345.16;4930897;29;20063;-48
2021/04/07 03:51:27;;;;;;;5.13;2.63;;;-0.80;83.30;;;-0.85;70.11;97338.56;4912004;29;20067;-48
2021/04/07 03:53:55;;;;;;;4.37;3.07;;;-0.80;83.10;;;-0.76;69.76;97337.97;4928930;29;20055;-49
2021/04/07 03:56:23;;;;;;;3.23;2.07;;;-0.80;83.00;;;-0.71;69.63;97337.69;4927721;29;20335;-48
2021/04/07 03:58:50;;;;;;;4.00;2.80;;;-0.70;82.70;;;-0.81;69.75;97340.06;4929305;29;20061;-51
2021/04/07 04:01:18;;;;;;;5.80;2.90;;;-0.80;82.50;;;-0.73;69.40;97350.84;4929407;29;20086;-48
2021/04/07 04:03:45;;;;;;;4.23;2.60;;;-0.70;83.00;;;-0.85;69.71;97343.81;4929204;29;20063;-47
2021/04/07 04:06:12;;;;;;;6.40;2.43;;;-0.70;82.80;;;-0.81;69.57;97350.50;4928713;29;20055;-47
2021/04/07 04:08:40;;;;;;;5.20;2.90;;;-0.80;83.20;;;-0.80;69.36;97353.00;4929555;29;20491;-50
2021/04/07 04:11:08;;;;;;;4.17;2.77;;;-0.80;82.70;;;-0.85;69.22;97349.03;4927995;29;20121;-50
2021/04/07 04:13:35;;;;;;;3.63;2.70;;;-0.80;81.90;;;-0.58;68.91;97356.88;4929035;29;20059;-50
2021/04/07 04:16:03;;;;;;;5.23;3.30;;;-0.70;82.00;;;-0.65;68.23;97364.25;4927570;29;20064;-47
2021/04/07 04:18:30;;;;;;;4.90;2.43;;;-0.70;81.20;;;-0.73;68.36;97363.91;4927918;29;20230;-48
2021/04/07 04:20:57;;;;;;;5.07;2.23;;;-0.70;81.30;;;-0.64;67.76;97373.78;4927999;29;20063;-50
2021/04/07 04:23:25;;;;;;;4.43;2.50;;;-0.70;80.70;;;-0.60;67.94;97380.50;4928611;29;20613;-49
2021/04/07 04:25:52;;;;;;;3.80;2.43;;;-0.60;80.40;;;-0.75;68.17;97383.25;4927971;29;20349;-46
2021/04/07 04:28:20;;;;;;;5.87;2.60;;;-0.80;80.30;;;-0.73;68.26;97389.22;4929586;29;20067;-47
2021/04/07 04:30:47;;;;;;;3.70;2.57;;;-0.70;80.20;;;-0.73;67.93;97399.69;4942339;23;20886;-48
2021/04/07 04:33:15;;;;;;;5.00;2.37;;;-0.80;79.70;;;-0.71;67.56;97388.19;4947987;29;20055;-49
2021/04/07 04:35:42;;;;;;;5.33;3.00;;;-0.80;80.10;;;-0.83;67.99;97407.28;4948388;29;20054;-48
2021/04/07 04:38:09;;;;;;;6.23;2.43;;;-0.80;80.10;;;-0.67;67.95;97407.97;4945844;28;20085;-46
2021/04/07 04:40:37;;;;;;;4.77;2.93;;;-0.70;80.20;;;-0.71;67.17;97408.28;4947626;29;20358;-47
2021/04/07 04:43:04;;;;;;;7.60;3.10;;;-0.70;80.30;;;-0.80;67.94;97420.97;4946642;29;20089;-50
2021/04/07 04:45:34;;;;;;;5.47;3.07;;;-0.70;80.70;;;-0.65;68.30;97419.16;4947858;29;20372;-47
2021/04/07 04:48:02;;;;;;;4.53;2.40;;;-0.60;81.10;;;-0.89;67.86;97425.91;4931801;29;20063;-46
2021/04/07 04:50:30;;;;;;;3.20;2.30;;;-0.80;80.20;;;-0.72;67.78;97437.94;4947130;29;20260;-56
2021/04/07 04:52:59;;;;;;;4.00;2.40;;;-0.70;80.50;;;-0.74;68.34;97442.44;4930447;29;20266;-51
2021/04/07 04:55:26;;;;;;;7.27;4.37;;;-0.60;80.60;;;-0.73;68.23;97452.81;4946533;29;20065;-47
2021/04/07 04:57:54;;;;;;;5.67;3.77;;;-0.70;81.00;;;-0.77;68.42;97453.09;4948149;29;20065;-49
2021/04/07 05:00:22;;;;;;;6.23;2.47;;;-0.70;80.60;;;-0.78;67.95;97452.25;4947394;29;20356;-49
2021/04/07 05:02:49;;;;;;;3.87;2.70;;;-0.70;81.00;;;-0.64;68.62;97448.75;4945493;29;20384;-47
2021/04/07 05:05:16;;;;;;;5.43;2.80;;;-0.60;82.00;;;-0.68;68.38;97455.97;4945635;29;20085;-48
2021/04/07 05:07:44;;;;;;;10.00;3.50;;;-0.60;80.40;;;-0.64;67.69;97462.69;4947613;29;20081;-48
2021/04/07 05:10:12;;;;;;;8.50;2.70;;;-0.60;80.60;;;-0.55;67.59;97458.66;4946327;29;20055;-50
2021/04/07 05:12:39;;;;;;;3.53;2.13;;;-0.60;80.00;;;-0.70;67.91;97457.00;4931611;29;20236;-51
2021/04/07 05:15:07;;;;;;;6.10;3.00;;;-0.60;79.70;;;-0.60;67.70;97465.97;4946955;29;20058;-51
2021/04/07 05:17:36;;;;;;;6.07;2.77;;;-0.60;79.40;;;-0.72;67.73;97466.72;4947482;29;20264;-47
2021/04/07 05:20:06;;;;;;;5.30;2.30;;;-0.60;79.50;;;-0.66;68.00;97482.88;4947967;29;20080;-49
2021/04/07 05:22:34;;;;;;;6.17;3.30;;;-0.60;80.20;;;-0.69;67.71;97471.75;4944837;29;20069;-50
2021/04/07 05:25:03;;;;;;;3.90;2.60;;;-0.70;79.70;;;-0.65;67.16;97481.09;4946488;29;20571;-48
2021/04/07 05:27:31;;;;;;;3.77;3.00;;;-0.70;78.90;;;-0.70;66.77;97485.75;4947066;29;20046;-49
2021/04/07 05:29:58;;;;;;;6.67;3.73;;;-0.70;78.50;;;-0.82;67.04;97485.56;4929218;29;20089;-48
2021/04/07 05:32:25;;;;;;;4.13;2.27;;;-0.80;78.50;;;-0.93;66.56;97484.56;4928763;29;20069;-50
2021/04/07 05:34:53;;;;;;;7.27;3.33;;;-0.90;78.50;;;-0.99;67.17;97498.81;4946147;29;20055;-51
2021/04/07 05:37:20;;;;;;;7.30;3.00;;;-0.80;78.60;;;-0.82;67.22;97496.03;4948417;29;20059;-52
2021/04/07 05:39:48;;;;;;;4.23;2.73;;;-0.90;79.20;;;-0.93;67.14;97513.28;4945624;29;20055;-47
2021/04/07 05:42:16;;;;;;;5.27;2.30;;;-0.90;79.20;;;-1.02;66.98;97522.56;4930336;29;20059;-49
2021/04/07 05:44:43;;;;;;;5.17;2.93;;;-0.90;79.30;;;-1.04;67.29;97513.97;4947492;29;20035;-50
2021/04/07 05:47:10;;;;;;;4.77;2.73;;;-0.90;78.90;;;-1.18;67.78;97520.03;4945435;29;20059;-50
2021/04/07 05:49:38;;;;;;;5.63;2.67;;;-0.90;79.10;;;-1.05;67.55;97520.97;4946376;28;20055;-49
2021/04/07 05:52:05;;;;;;;5.17;3.17;;;-0.80;78.60;;;-1.02;67.40;97533.84;4950102;29;20062;-51
2021/04/07 05:54:32;;;;;;;6.00;2.87;;;-0.80;78.60;;;-0.94;66.84;97533.38;4948478;29;20051;-52
2021/04/07 05:57:00;;;;;;;5.00;2.20;;;-0.70;78.20;;;-1.05;67.25;97533.16;4950965;29;20074;-50
2021/04/07 05:59:28;;;;;;;3.43;2.50;;;-0.80;77.70;;;-1.01;66.81;97529.44;4949582;29;20058;-48
2021/04/07 06:01:55;;;;;;;3.83;2.33;;;-0.80;77.70;;;-0.84;66.41;97546.72;4951195;29;20047;-47
2021/04/07 06:04:23;;;;;;;5.97;2.57;;;-0.60;76.90;;;-0.84;66.77;97542.34;4950467;29;20043;-49
2021/04/07 06:06:50;;;;;;;3.90;2.37;;;-0.60;77.30;;;-0.72;65.82;97545.97;4950034;29;20048;-48
2021/04/07 06:09:17;;;;;;;7.13;3.03;;;-0.50;76.80;;;-0.72;66.03;97545.16;4933478;29;20059;-53
2021/04/07 06:11:45;;;;;;;4.53;3.10;;;-0.60;76.70;;;-0.67;66.09;97557.00;4951484;29;20195;-49
2021/04/07 06:14:12;;;;;;;4.33;2.47;;;-0.50;77.00;;;-0.70;65.09;97564.19;4949564;29;20065;-51
2021/04/07 06:16:40;;;;;;;4.63;2.57;;;-0.50;75.20;;;-0.60;65.03;97553.09;4950402;29;20050;-51
2021/04/07 06:19:08;;;;;;;5.50;2.23;;;-0.40;76.10;;;-0.61;64.78;97569.69;4949662;29;20051;-49
2021/04/07 06:21:35;;;;;;;3.97;2.63;;;-0.50;75.40;;;-0.77;64.61;97573.34;4949813;29;20245;-50
2021/04/07 06:24:03;;;;;;;5.80;2.90;;;-0.60;75.30;;;-0.74;65.33;97581.00;4949245;29;20287;-51
2021/04/07 06:26:31;;;;;;;3.23;1.90;;;-0.60;75.50;;;-0.78;65.45;97582.13;4949641;29;20066;-48
2021/04/07 06:28:58;;;;;;;4.20;2.63;;;-0.60;75.50;;;-0.76;64.54;97585.47;4951847;29;20085;-52
2021/04/07 06:31:25;;;;;;;4.83;2.77;;;-0.70;75.60;;;-0.72;65.20;97592.19;4950821;29;20061;-47
2021/04/07 06:33:53;;;;;;;5.00;2.20;;;-0.60;76.10;;;-0.60;64.86;97601.94;4931997;29;20392;-47
2021/04/07 06:36:20;;;;;;;3.70;2.07;;;-0.50;75.40;;;-0.64;64.36;97614.34;4949592;29;20225;-47
2021/04/07 06:38:48;;;;;;;5.57;2.40;;;-0.50;74.50;;;-0.60;64.14;97605.38;4949024;29;20059;-49
2021/04/07 06:41:15;;;;;;;2.83;1.87;;;-0.50;74.00;;;-0.48;64.47;97613.44;4931650;29;20066;-52
2021/04/07 06:43:44;;;;;;;4.27;2.63;;;-0.40;74.50;;;-0.41;63.54;97620.81;4950003;29;20057;-50
2021/04/07 06:46:18;;;;;;;5.97;2.20;;;-0.30;74.30;;;-0.26;63.69;97613.78;4933187;29;20059;-48
2021/04/07 06:48:46;;;;;;;5.07;2.10;;;-0.20;73.60;;;-0.21;63.86;97626.59;4933069;29;20058;-49
2021/04/07 06:51:18;;;;;;;5.77;2.27;;;-0.20;74.10;;;-0.22;63.34;97619.66;4929376;29;20344;-50
2021/04/07 06:53:52;;;;;;;2.70;1.63;;;-0.10;72.80;;;-0.36;62.05;97641.44;4949226;29;20368;-50
2021/04/07 06:56:20;;;;;;;3.45;1.90;;;-0.40;71.70;;;-0.35;62.16;97639.66;4944768;29;20066;-47
2021/04/07 06:58:47;;;;;;;4.67;1.90;;;-0.20;71.90;;;-0.24;62.64;97632.84;4949572;29;20047;-50
2021/04/07 07:01:14;;;;;;;6.87;2.80;;;-0.20;72.70;;;-0.23;62.73;97638.94;4947243;28;20058;-51
2021/04/07 07:03:42;;;;;;;5.93;2.17;;;-0.20;73.10;;;-0.28;63.17;97631.34;4948799;29;20077;-48
2021/04/07 07:06:11;;;;;;;3.50;2.20;;;-0.20;73.00;;;-0.28;61.84;97640.97;4949687;29;20352;-50
2021/04/07 07:08:42;;;;;;;2.70;1.83;;;-0.20;72.20;;;-0.23;62.93;97634.53;4968093;28;20061;-49
2021/04/07 07:11:15;;;;;;;5.97;2.10;;;-0.10;72.10;;;-0.27;61.95;97653.13;4966529;28;20062;-48
2021/04/07 07:13:43;;;;;;;3.97;2.30;;;-0.10;71.00;;;-0.28;63.37;97649.66;4966748;28;20061;-51
2021/04/07 07:16:13;;;;;;;3.70;2.83;;;-0.10;72.60;;;-0.08;63.46;97647.59;4967953;28;20302;-49
2021/04/07 07:18:43;;;;;;;4.33;2.57;;;0.10;73.30;;;-0.06;63.05;97646.59;4968106;28;20059;-47
2021/04/07 07:21:17;;;;;;;4.20;3.03;;;0.20;72.70;;;-0.05;62.78;97657.88;4951821;28;20061;-49
2021/04/07 07:23:47;;;;;;;4.80;2.70;;;0.20;72.20;;;-0.03;62.98;97666.50;4966901;28;20065;-48
2021/04/07 07:26:19;;;;;;;5.83;2.57;;;0.20;71.90;;;0.01;62.80;97677.63;4967699;28;20624;-48
2021/04/07 07:28:54;;;;;;;4.60;2.17;;;0.20;72.10;;;-0.02;63.17;97702.19;4950587;28;20062;-50
2021/04/07 07:31:25;;;;;;;3.93;2.43;;;0.30;73.50;;;-0.07;61.87;97678.91;4968175;28;20054;-48
2021/04/07 07:33:56;;;;;;;2.83;1.97;;;0.30;70.50;;;0.09;62.87;97673.56;4950444;28;20065;-46
2021/04/07 07:36:29;;;;;;;2.87;1.77;;;0.40;71.30;;;-0.08;61.55;97690.34;4969338;28;20059;-47
2021/04/07 07:38:59;;;;;;;5.30;1.90;;;0.20;69.60;;;-0.22;62.12;97691.16;4966368;28;20055;-48
2021/04/07 07:41:35;;;;;;;6.63;2.27;;;0.10;70.60;;;-0.03;61.53;97690.03;4950489;28;20073;-50
2021/04/07 07:44:20;;;;;;;3.30;2.30;;;0.20;69.60;;;0.07;61.25;97688.53;4967092;28;20059;-51
2021/04/07 07:47:04;;;;;;;3.33;2.00;;;0.50;69.50;;;0.18;61.96;97699.19;4966679;28;20047;-51
2021/04/07 07:49:32;;;;;;;3.17;1.73;;;0.60;70.50;;;0.21;60.13;97708.63;4967791;28;20056;-51
2021/04/07 07:51:59;;;;;;;10.30;4.27;;;0.60;68.00;;;0.34;59.81;97706.94;4967666;28;20077;-49
2021/04/07 07:54:28;;;;;;;4.40;1.87;;;0.70;68.10;;;0.43;60.40;97689.81;4965123;28;20253;-48
2021/04/07 07:56:56;;;;;;;2.63;1.80;;;0.80;68.50;;;0.51;60.32;97691.94;4948789;28;20120;-49
2021/04/07 07:59:29;;;;;;;4.40;1.63;;;0.90;67.70;;;0.43;59.04;97692.44;4948332;28;20047;-47
2021/04/07 08:01:57;;;;;;;3.93;1.90;;;0.80;66.70;;;0.46;59.68;97701.84;4966773;28;20050;-49
2021/04/07 08:04:26;;;;;;;4.10;1.60;;;0.80;68.40;;;0.61;59.59;97710.53;4965863;28;20047;-51
2021/04/07 08:06:53;;;;;;;2.17;1.57;;;1.00;67.00;;;0.52;58.42;97710.16;4966371;28;20054;-52
2021/04/07 08:09:21;;;;;;;3.80;1.80;;;0.90;65.30;;;0.60;58.49;97714.91;4933471;28;20053;-48
2021/04/07 08:11:48;;;;;;;3.07;1.90;;;0.90;66.20;;;0.44;57.90;97708.97;4962427;28;20244;-52
2021/04/07 08:14:20;;;;;;;6.13;2.27;;;0.70;64.90;;;0.42;58.92;97719.53;4945278;28;20055;-51
2021/04/07 08:16:47;;;;;;;3.97;1.80;;;0.70;67.00;;;0.42;59.23;97743.13;4946117;28;20047;-50
2021/04/07 08:19:16;;;;;;;3.00;1.53;;;0.70;66.70;;;0.41;58.67;97715.25;4950382;28;20057;-49
2021/04/07 08:21:46;;;;;;;3.97;2.20;;;0.80;66.00;;;0.55;59.72;97717.00;4944975;29;20051;-50
2021/04/07 08:24:16;;;;;;;4.43;1.70;;;0.80;67.90;;;0.75;60.08;97718.34;4964882;29;20051;-48
2021/04/07 08:26:45;;;;;;;1.50;1.23;;;1.00;68.10;;;0.85;59.17;97713.34;4947750;29;20059;-49
2021/04/07 08:29:12;;;;;;;4.87;2.00;;;1.10;67.00;;;0.68;58.32;97722.28;4947776;29;20051;-49
2021/04/07 08:31:43;;;;;;;4.00;2.30;;;1.10;66.20;;;0.82;59.69;97726.69;4964821;28;20059;-52
2021/04/07 08:34:16;;;;;;;2.53;1.80;;;1.10;67.50;;;0.54;60.19;97733.66;4948847;29;20044;-48
2021/04/07 08:36:45;;;;;;;7.93;2.07;;;0.80;68.60;;;0.85;59.03;97735.16;4947689;29;20039;-51
2021/04/07 08:39:16;;;;;;;6.17;2.47;;;1.20;68.10;;;0.94;60.98;97738.97;4947227;29;20047;-50
2021/04/07 08:41:48;;;;;;;2.93;2.00;;;1.20;69.70;;;0.51;62.60;97754.81;4964400;29;20057;-50
2021/04/07 08:44:19;;;;;;;5.67;2.60;;;0.70;71.90;;;0.59;62.69;97761.25;4964544;29;20047;-50
2021/04/07 08:46:57;;;;;;;4.27;1.97;;;0.80;73.40;;;0.36;64.21;97772.31;4947756;29;20055;-49
2021/04/07 08:49:37;;;;;;;2.00;1.57;;;0.50;75.20;;;-0.03;66.84;97765.94;4964448;29;20057;-49
2021/04/07 08:52:23;;;;;;;5.53;2.70;;;0.10;79.20;;;0.30;66.83;97765.66;4964656;29;20042;-53
2021/04/07 08:54:56;;;;;;;5.73;2.90;;;0.60;78.20;;;0.47;66.21;97766.41;4962911;29;20058;-49
2021/04/07 08:57:31;;;;;;;4.35;2.88;;;0.70;77.30;;;0.49;66.19;97764.53;4962953;29;20051;-50
2021/04/07 09:00:08;;;;;;;6.23;2.37;;;0.80;76.50;;;0.52;66.23;97772.19;4964373;29;20047;-47
2021/04/07 09:02:56;;;;;;;4.20;2.63;;;0.90;75.80;;;0.62;66.11;97765.47;4954877;28;20051;-52
2021/04/07 09:05:34;;;;;;;7.43;2.87;;;1.00;76.00;;;0.80;64.58;97768.69;4947039;29;20047;-51
2021/04/07 09:08:05;;;;;;;5.00;2.23;;;1.10;75.40;;;0.84;63.39;97766.72;4961570;29;20053;-49
2021/04/07 09:10:53;;;;;;;8.70;3.23;;;1.20;73.50;;;0.71;62.59;97770.09;4962025;29;20059;-51
2021/04/07 09:13:40;;;;;;;4.77;2.67;;;1.40;70.50;;;0.80;62.83;97787.03;4963340;29;20046;-51
2021/04/07 09:16:10;;;;;;;4.93;2.83;;;1.30;71.00;;;0.79;62.25;97782.72;4938099;29;20264;-50
2021/04/07 09:18:48;;;;;;;5.37;2.77;;;1.10;71.40;;;0.81;61.28;97767.75;4942547;29;20065;-49
2021/04/07 09:21:16;;;;;;;6.47;3.43;;;1.30;69.90;;;0.86;61.81;97770.94;4960285;29;20047;-51
2021/04/07 09:23:59;;;;;;;6.00;2.90;;;1.30;69.60;;;0.88;61.46;97749.88;4961875;29;20047;-51
2021/04/07 09:26:31;;;;;;;4.60;2.50;;;1.40;69.00;;;1.05;60.83;97773.22;4962880;29;20266;-48
2021/04/07 09:28:58;;;;;;;6.70;3.17;;;1.40;70.60;;;0.94;60.61;97799.28;4945417;29;20261;-51
2021/04/07 09:31:33;;;;;;;6.10;2.97;;;1.40;69.00;;;0.90;60.06;97761.09;4961903;29;20051;-47
2021/04/07 09:34:01;;;;;;;6.73;2.67;;;1.20;67.70;;;1.01;59.42;97790.09;4963206;29;20043;-51
2021/04/07 09:36:32;;;;;;;4.50;2.90;;;1.40;67.60;;;1.00;60.05;97785.78;4962563;29;20059;-53
2021/04/07 09:39:05;;;;;;;4.07;2.20;;;1.30;67.80;;;1.07;59.27;97786.25;4962667;29;20043;-53
2021/04/07 09:41:44;;;;;;;4.20;3.10;;;1.40;67.30;;;1.04;57.89;97800.38;4945512;29;20051;-52
2021/04/07 09:44:16;;;;;;;6.53;2.77;;;1.60;65.90;;;1.18;58.42;97788.97;4963299;29;20051;-50
2021/04/07 09:46:56;;;;;;;6.70;2.70;;;1.80;65.30;;;1.41;58.18;97782.25;4962714;29;20070;-52
2021/04/07 09:49:26;;;;;;;4.63;2.33;;;2.10;65.50;;;1.51;58.48;97779.84;4961971;29;20371;-51
2021/04/07 09:51:55;;;;;;;2.67;1.70;;;2.10;65.40;;;1.32;57.14;97798.59;4960563;29;20332;-54
2021/04/07 09:54:31;;;;;;;6.03;2.13;;;1.80;63.90;;;1.35;57.43;97795.78;4962347;29;20059;-52
2021/04/07 09:57:12;;;;;;;3.10;2.07;;;1.80;64.00;;;1.35;56.83;97793.97;4945099;29;20222;-51
2021/04/07 09:59:48;;;;;;;7.00;2.77;;;1.90;63.70;;;1.42;57.65;97802.31;4962410;29;20051;-54
2021/04/07 10:02:22;;;;;;;5.10;2.13;;;1.80;64.70;;;1.42;58.15;97793.59;4961887;29;20241;-52
2021/04/07 10:04:51;;;;;;;5.13;2.35;;;1.70;65.60;;;1.47;57.93;97784.47;4962848;29;20374;-54
2021/04/07 10:07:23;;;;;;;4.73;2.27;;;1.70;66.10;;;1.54;58.93;97808.53;4945995;29;20236;-51
2021/04/07 10:10:00;;;;;;;7.77;2.23;;;1.80;67.50;;;1.45;58.26;97791.59;4939057;29;20043;-53
2021/04/07 10:12:32;;;;;;;5.33;2.30;;;2.10;65.60;;;1.26;59.63;97804.22;4962449;29;20057;-53
2021/04/07 10:15:04;;;;;;;5.60;2.45;;;2.20;66.00;;;1.40;59.78;97796.31;4962393;29;20055;-53
2021/04/07 10:17:40;;;;;;;4.67;2.27;;;2.20;66.30;;;1.53;59.41;97799.81;4962357;29;20070;-53
2021/04/07 10:20:16;;;;;;;6.70;2.47;;;2.30;66.00;;;1.42;59.54;97815.44;4962694;29;20047;-50
2021/04/07 10:22:49;;;;;;;4.90;2.60;;;2.10;65.70;;;1.51;58.54;97798.22;4962807;29;20043;-53
2021/04/07 10:25:22;;;;;;;8.23;2.55;;;2.10;66.30;;;1.62;58.97;97810.66;4962588;29;20192;-54
2021/04/07 10:28:06;;;;;;;5.43;2.17;;;2.20;65.50;;;1.43;59.25;97811.00;4946576;29;20057;-53
2021/04/07 10:30:48;;;;;;;6.47;2.70;;;1.90;67.30;;;1.47;59.58;97812.50;4962499;29;20057;-52
2021/04/07 10:33:26;;;;;;;3.67;2.20;;;1.80;67.40;;;1.60;57.70;97810.75;4962644;29;20268;-53